createdAt,value
2023-04-18T00:00:10.051Z,102877.16
2023-04-18T00:02:38.483Z,102877.16
2023-04-18T00:05:07.478Z,102873.72
2023-04-18T00:07:35.318Z,102879.66
2023-04-18T00:10:03.456Z,102884.75
2023-04-18T00:12:29.917Z,102886.44
2023-04-18T00:14:58.577Z,102885.53
2023-04-18T00:17:27.628Z,102880.38
2023-04-18T00:19:56.291Z,102883.75
2023-04-18T00:22:22.799Z,102881.19
2023-04-18T00:24:50.632Z,102870.06
2023-04-18T00:27:20.473Z,102881.94
2023-04-18T00:29:47.487Z,102878.50
2023-04-18T00:32:14.646Z,102882.72
2023-04-18T00:34:41.224Z,102877.56
2023-04-18T00:37:08.200Z,102880.94
2023-04-18T00:39:37.853Z,102883.47
2023-04-18T00:42:04.290Z,102878.28
2023-04-18T00:44:31.498Z,102882.50
2023-04-18T00:46:58.240Z,102882.44
2023-04-18T00:49:25.633Z,102881.59
2023-04-18T00:51:52.499Z,102872.97
2023-04-18T00:54:19.146Z,102878.06
2023-04-18T00:56:46.792Z,102878.03
2023-04-18T00:59:13.896Z,102869.47
2023-04-18T01:01:40.471Z,102870.25
2023-04-18T01:04:08.203Z,102870.22
2023-04-18T01:06:35.378Z,102873.53
2023-04-18T01:09:02.205Z,102864.94
2023-04-18T01:11:28.597Z,102861.53
2023-04-18T01:14:13.391Z,102863.19
2023-04-18T01:16:39.955Z,102870.81
2023-04-18T01:19:06.694Z,102863.13
2023-04-18T01:21:36.124Z,102864.81
2023-04-18T01:24:16.562Z,102863.06
2023-04-18T01:26:49.221Z,102867.28
2023-04-18T01:29:15.812Z,102858.72
2023-04-18T01:31:42.315Z,102851.03
2023-04-18T01:34:08.999Z,102856.13
2023-04-18T01:36:36.616Z,102853.56
2023-04-18T01:39:03.489Z,102853.50
2023-04-18T01:41:32.480Z,102850.94
2023-04-18T01:43:59.752Z,102848.31
2023-04-18T01:46:26.421Z,102847.44
2023-04-18T01:48:53.144Z,102848.25
2023-04-18T01:51:19.663Z,102849.09
2023-04-18T01:53:46.046Z,102851.63
2023-04-18T01:56:12.865Z,102843.91
2023-04-18T01:58:39.485Z,102852.41
2023-04-18T02:01:05.869Z,102855.75
2023-04-18T02:03:32.407Z,102850.63
2023-04-18T02:06:01.043Z,102847.97
2023-04-18T02:08:27.485Z,102853.94
2023-04-18T02:10:53.848Z,102848.75
2023-04-18T02:13:20.282Z,102842.75
2023-04-18T02:15:46.649Z,102852.06
2023-04-18T02:18:13.252Z,102843.53
2023-04-18T02:20:39.972Z,102848.53
2023-04-18T02:23:07.011Z,102845.09
2023-04-18T02:25:33.444Z,102842.50
2023-04-18T02:28:00.073Z,102836.50
2023-04-18T02:30:27.066Z,102847.50
2023-04-18T02:32:54.518Z,102844.09
2023-04-18T02:35:21.332Z,102842.31
2023-04-18T02:37:47.692Z,102844.84
2023-04-18T02:40:14.336Z,102847.34
2023-04-18T02:42:40.924Z,102849.00
2023-04-18T02:45:08.219Z,102849.81
2023-04-18T02:47:46.964Z,102850.59
2023-04-18T02:50:18.072Z,102845.44
2023-04-18T02:52:44.447Z,102852.25
2023-04-18T02:55:10.925Z,102851.34
2023-04-18T02:57:37.352Z,102847.94
2023-04-18T03:00:05.174Z,102843.59
2023-04-18T03:02:31.618Z,102851.25
2023-04-18T03:04:58.137Z,102856.28
2023-04-18T03:07:24.507Z,102846.91
2023-04-18T03:09:50.884Z,102849.41
2023-04-18T03:12:17.400Z,102848.53
2023-04-18T03:14:44.515Z,102842.53
2023-04-18T03:17:11.411Z,102842.53
2023-04-18T03:19:37.858Z,102843.34
2023-04-18T03:22:04.191Z,102851.78
2023-04-18T03:24:30.794Z,102840.63
2023-04-18T03:26:57.853Z,102851.69
2023-04-18T03:29:24.318Z,102849.13
2023-04-18T03:31:50.753Z,102848.19
2023-04-18T03:34:17.141Z,102849.88
2023-04-18T03:36:44.068Z,102856.59
2023-04-18T03:39:12.917Z,102856.50
2023-04-18T03:41:39.325Z,102861.56
2023-04-18T03:44:05.702Z,102861.56
2023-04-18T03:46:32.239Z,102864.03
2023-04-18T03:48:58.680Z,102858.03
2023-04-18T03:51:25.170Z,102857.13
2023-04-18T03:53:51.528Z,102862.22
2023-04-18T03:56:18.089Z,102862.16
2023-04-18T03:58:44.449Z,102857.84
2023-04-18T04:01:10.816Z,102862.09
2023-04-18T04:03:37.389Z,102854.47
2023-04-18T04:06:04.294Z,102859.59
2023-04-18T04:08:30.791Z,102859.66
2023-04-18T04:10:57.214Z,102860.53
2023-04-18T04:13:23.754Z,102855.50
2023-04-18T04:15:50.540Z,102858.97
2023-04-18T04:18:16.946Z,102860.69
2023-04-18T04:20:45.646Z,102865.88
2023-04-18T04:23:12.026Z,102862.50
2023-04-18T04:25:39.185Z,102860.03
2023-04-18T04:28:06.751Z,102860.09
2023-04-18T04:30:33.675Z,102860.16
2023-04-18T04:33:01.606Z,102861.00
2023-04-18T04:35:28.328Z,102868.69
2023-04-18T04:37:54.806Z,102862.78
2023-04-18T04:40:22.820Z,102867.91
2023-04-18T04:42:49.358Z,102865.38
2023-04-18T04:45:15.787Z,102867.16
2023-04-18T04:47:42.200Z,102864.63
2023-04-18T04:50:14.593Z,102873.13
2023-04-18T04:52:42.297Z,102875.75
2023-04-18T04:55:08.931Z,102867.28
2023-04-18T04:57:35.805Z,102875.78
2023-04-18T05:00:02.205Z,102874.13
2023-04-18T05:02:28.762Z,102871.59
2023-04-18T05:04:55.362Z,102868.25
2023-04-18T05:07:21.852Z,102882.78
2023-04-18T05:09:48.269Z,102876.78
2023-04-18T05:12:14.627Z,102881.91
2023-04-18T05:14:41.019Z,102878.56
2023-04-18T05:17:07.751Z,102887.06
2023-04-18T05:19:34.307Z,102880.31
2023-04-18T05:22:00.785Z,102880.31
2023-04-18T05:24:27.257Z,102878.63
2023-04-18T05:26:53.778Z,102888.03
2023-04-18T05:29:20.339Z,102889.78
2023-04-18T05:31:46.838Z,102877.91
2023-04-18T05:34:13.640Z,102886.41
2023-04-18T05:36:40.462Z,102898.38
2023-04-18T05:39:07.084Z,102883.09
2023-04-18T05:41:33.513Z,102886.53
2023-04-18T05:44:05.257Z,102901.03
2023-04-18T05:46:43.445Z,102896.88
2023-04-18T05:49:09.888Z,102896.94
2023-04-18T05:51:36.296Z,102900.44
2023-04-18T05:54:02.877Z,102903.06
2023-04-18T05:56:29.427Z,102896.28
2023-04-18T05:58:55.912Z,102900.59
2023-04-18T06:01:22.931Z,102902.38
2023-04-18T06:03:49.541Z,102899.06
2023-04-18T06:06:16.258Z,102897.44
2023-04-18T06:08:42.781Z,102900.91
2023-04-18T06:11:09.219Z,102900.94
2023-04-18T06:13:36.735Z,102906.91
2023-04-18T06:16:03.643Z,102912.97
2023-04-18T06:18:30.045Z,102913.00
2023-04-18T06:20:56.443Z,102908.00
2023-04-18T06:23:22.841Z,102915.75
2023-04-18T06:25:49.352Z,102905.66
2023-04-18T06:28:16.131Z,102909.16
2023-04-18T06:30:42.533Z,102912.69
2023-04-18T06:33:12.089Z,102914.56
2023-04-18T06:35:38.624Z,102915.50
2023-04-18T06:38:05.026Z,102914.75
2023-04-18T06:40:31.530Z,102920.84
2023-04-18T06:42:58.060Z,102911.63
2023-04-18T06:45:24.612Z,102918.66
2023-04-18T06:47:52.319Z,102929.75
2023-04-18T06:50:18.847Z,102923.81
2023-04-18T06:52:45.645Z,102920.41
2023-04-18T06:55:13.958Z,102923.03
2023-04-18T06:57:41.719Z,102929.84
2023-04-18T07:00:10.012Z,102926.50
2023-04-18T07:02:38.490Z,102925.72
2023-04-18T07:05:06.000Z,102928.34
2023-04-18T07:07:33.462Z,102930.97
2023-04-18T07:09:59.904Z,102926.69
2023-04-18T07:12:27.210Z,102936.13
2023-04-18T07:14:54.326Z,102926.78
2023-04-18T07:17:20.825Z,102929.34
2023-04-18T07:19:47.621Z,102929.34
2023-04-18T07:22:14.080Z,102935.31
2023-04-18T07:24:40.599Z,102937.91
2023-04-18T07:27:07.521Z,102943.84
2023-04-18T07:29:33.889Z,102930.22
2023-04-18T07:32:00.459Z,102930.25
2023-04-18T07:34:29.585Z,102927.84
2023-04-18T07:36:57.597Z,102938.16
2023-04-18T07:39:23.985Z,102943.31
2023-04-18T07:41:50.524Z,102929.66
2023-04-18T07:44:16.990Z,102934.00
2023-04-18T07:46:43.648Z,102924.66
2023-04-18T07:49:10.099Z,102927.31
2023-04-18T07:51:36.448Z,102930.91
2023-04-18T07:54:02.978Z,102920.72
2023-04-18T07:56:29.724Z,102924.19
2023-04-18T07:58:56.265Z,102934.44
2023-04-18T08:01:24.613Z,102936.19
2023-04-18T08:03:51.875Z,102930.22
2023-04-18T08:06:18.411Z,102940.53
2023-04-18T08:08:44.905Z,102931.97
2023-04-18T08:11:11.410Z,102933.69
2023-04-18T08:13:37.941Z,102925.13
2023-04-18T08:16:04.621Z,102931.13
2023-04-18T08:18:31.160Z,102938.00
2023-04-18T08:20:57.613Z,102938.00
2023-04-18T08:23:24.005Z,102939.69
2023-04-18T08:25:50.946Z,102937.97
2023-04-18T08:28:17.635Z,102933.69
2023-04-18T08:30:48.606Z,102937.06
2023-04-18T08:33:16.155Z,102937.00
2023-04-18T08:35:43.094Z,102939.63
2023-04-18T08:38:09.662Z,102937.09
2023-04-18T08:40:37.500Z,102942.22
2023-04-18T08:43:09.315Z,102932.78
2023-04-18T08:45:36.806Z,102931.94
2023-04-18T08:48:03.905Z,102933.66
2023-04-18T08:50:31.881Z,102937.94
2023-04-18T08:53:00.944Z,102937.06
2023-04-18T08:55:27.436Z,102928.34
2023-04-18T08:57:55.307Z,102927.41
2023-04-18T09:00:22.702Z,102934.31
2023-04-18T09:02:49.467Z,102934.38
2023-04-18T09:05:19.968Z,102943.81
2023-04-18T09:07:51.414Z,102933.50
2023-04-18T09:10:33.278Z,102924.88
2023-04-18T09:13:02.933Z,102934.28
2023-04-18T09:15:29.836Z,102937.75
2023-04-18T09:18:02.618Z,102926.22
2023-04-18T09:20:38.056Z,102937.81
2023-04-18T09:23:10.802Z,102929.09
2023-04-18T09:25:44.491Z,102928.13
2023-04-18T09:28:29.113Z,102929.72
2023-04-18T09:31:10.125Z,102925.44
2023-04-18T09:33:37.052Z,102934.56
2023-04-18T09:36:23.587Z,102932.53
2023-04-18T09:38:54.509Z,102937.59
2023-04-18T09:41:23.671Z,102928.97
2023-04-18T09:43:50.346Z,102925.53
2023-04-18T09:46:17.962Z,102920.28
2023-04-18T09:48:44.578Z,102918.50
2023-04-18T09:51:14.726Z,102927.22
2023-04-18T09:53:44.586Z,102928.25
2023-04-18T09:56:27.671Z,102922.34
2023-04-18T09:59:06.160Z,102920.59
2023-04-18T10:01:33.927Z,102920.63
2023-04-18T10:04:03.347Z,102917.25
2023-04-18T10:06:33.453Z,102923.22
2023-04-18T10:09:02.868Z,102913.81
2023-04-18T10:11:31.659Z,102921.47
2023-04-18T10:14:02.485Z,102917.13
2023-04-18T10:16:29.428Z,102914.66
2023-04-18T10:18:56.463Z,102926.81
2023-04-18T10:21:22.854Z,102926.94
2023-04-18T10:23:50.274Z,102916.59
2023-04-18T10:26:16.843Z,102914.72
2023-04-18T10:28:57.730Z,102915.19
2023-04-18T10:31:29.047Z,102907.44
2023-04-18T10:36:28.061Z,102915.38
2023-04-18T10:39:19.222Z,102908.47
2023-04-18T10:41:50.988Z,102909.34
2023-04-18T10:44:23.050Z,102910.00
2023-04-18T10:46:53.097Z,102901.78
2023-04-18T10:49:30.293Z,102901.53
2023-04-18T10:52:00.698Z,102896.28
2023-04-18T10:54:47.604Z,102878.50
2023-04-18T10:57:15.201Z,102899.00
2023-04-18T10:59:44.009Z,102891.47
2023-04-18T11:02:30.018Z,102883.38
2023-04-18T11:05:01.540Z,102881.56
2023-04-18T11:07:39.658Z,102874.31
2023-04-18T11:10:07.800Z,102891.84
2023-04-18T11:12:37.507Z,102879.03
2023-04-18T11:15:13.021Z,102885.78
2023-04-18T11:17:40.304Z,102878.91
2023-04-18T11:20:09.235Z,102881.50
2023-04-18T11:22:51.972Z,102891.88
2023-04-18T11:25:19.826Z,102880.63
2023-04-18T11:27:48.942Z,102875.13
2023-04-18T11:30:15.642Z,102877.66
2023-04-18T11:32:42.131Z,102871.69
2023-04-18T11:35:11.201Z,102874.44
2023-04-18T11:37:39.151Z,102871.06
2023-04-18T11:40:08.393Z,102878.00
2023-04-18T11:42:37.315Z,102868.72
2023-04-18T11:45:04.165Z,102875.38
2023-04-18T11:47:33.909Z,102875.94
2023-04-18T11:50:07.992Z,102875.75
2023-04-18T11:52:36.034Z,102871.31
2023-04-18T11:55:19.515Z,102882.38
2023-04-18T11:57:56.200Z,102879.94
2023-04-18T12:00:41.584Z,102879.06
2023-04-18T12:03:16.536Z,102873.09
2023-04-18T12:05:43.229Z,102872.03
2023-04-18T12:08:11.977Z,102865.09
2023-04-18T12:10:46.331Z,102880.56
2023-04-18T12:13:13.016Z,102876.31
2023-04-18T12:15:42.218Z,102875.47
2023-04-18T12:18:09.067Z,102871.25
2023-04-18T12:20:45.826Z,102878.03
2023-04-18T12:23:48.081Z,102870.03
2023-04-18T12:26:18.205Z,102870.63
2023-04-18T12:28:45.830Z,102870.44
2023-04-18T12:31:12.842Z,102869.69
2023-04-18T12:33:39.346Z,102872.34
2023-04-18T12:36:08.166Z,102860.38
2023-04-18T12:38:35.608Z,102862.06
2023-04-18T12:41:02.689Z,102869.06
2023-04-18T12:43:29.267Z,102863.09
2023-04-18T12:45:55.903Z,102860.34
2023-04-18T12:48:22.580Z,102858.72
2023-04-18T12:50:49.010Z,102857.97
2023-04-18T12:53:15.437Z,102855.41
2023-04-18T12:55:41.832Z,102854.56
2023-04-18T12:58:08.224Z,102859.91
2023-04-18T13:00:34.870Z,102866.00
2023-04-18T13:03:01.619Z,102854.66
2023-04-18T13:05:31.666Z,102863.25
2023-04-18T13:08:15.248Z,102858.25
2023-04-18T13:10:43.280Z,102865.19
2023-04-18T13:13:09.718Z,102862.59
2023-04-18T13:15:36.156Z,102854.06
2023-04-18T13:18:05.163Z,102861.84
2023-04-18T13:20:32.605Z,102864.44
2023-04-18T13:22:59.187Z,102861.81
2023-04-18T13:25:26.576Z,102860.91
2023-04-18T13:27:53.328Z,102855.56
2023-04-18T13:30:19.943Z,102855.44
2023-04-18T13:32:47.218Z,102858.88
2023-04-18T13:35:16.462Z,102856.31
2023-04-18T13:37:43.047Z,102857.94
2023-04-18T13:40:09.974Z,102855.00
2023-04-18T13:42:38.664Z,102854.91
2023-04-18T13:45:05.722Z,102848.78
2023-04-18T13:47:32.097Z,102850.47
2023-04-18T13:49:58.671Z,102851.25
2023-04-18T13:52:25.634Z,102851.81
2023-04-18T13:54:52.068Z,102847.47
2023-04-18T13:57:18.559Z,102847.44
2023-04-18T13:59:44.966Z,102846.56
2023-04-18T14:02:11.579Z,102847.94
2023-04-18T14:04:38.321Z,102850.84
2023-04-18T14:07:06.430Z,102844.41
2023-04-18T14:09:33.267Z,102846.59
2023-04-18T14:11:59.814Z,102835.00
2023-04-18T14:14:26.364Z,102837.97
2023-04-18T14:16:53.646Z,102842.41
2023-04-18T14:19:20.238Z,102833.69
2023-04-18T14:21:47.554Z,102834.41
2023-04-18T14:24:14.257Z,102836.88
2023-04-18T14:26:40.865Z,102824.84
2023-04-18T14:29:07.279Z,102829.84
2023-04-18T14:31:33.633Z,102818.09
2023-04-18T14:34:00.138Z,102817.28
2023-04-18T14:36:27.130Z,102833.97
2023-04-18T14:38:54.581Z,102820.41
2023-04-18T14:41:21.091Z,102823.59
2023-04-18T14:43:47.788Z,102811.19
2023-04-18T14:46:16.515Z,102824.44
2023-04-18T14:48:49.796Z,102820.75
2023-04-18T14:51:16.949Z,102821.25
2023-04-18T14:53:44.761Z,102818.16
2023-04-18T14:56:11.225Z,102813.97
2023-04-18T14:58:37.757Z,102810.31
2023-04-18T15:01:04.559Z,102813.06
2023-04-18T15:03:31.226Z,102817.81
2023-04-18T15:05:57.971Z,102818.34
2023-04-18T15:08:24.546Z,102808.66
2023-04-18T15:10:50.997Z,102807.53
2023-04-18T15:13:17.581Z,102808.19
2023-04-18T15:15:51.602Z,102805.41
2023-04-18T15:18:18.038Z,102803.84
2023-04-18T15:20:44.499Z,102806.41
2023-04-18T15:23:13.710Z,102808.16
2023-04-18T15:25:41.583Z,102801.38
2023-04-18T15:28:08.028Z,102804.97
2023-04-18T15:30:34.524Z,102803.41
2023-04-18T15:33:02.242Z,102797.22
2023-04-18T15:35:28.724Z,102794.53
2023-04-18T15:37:55.538Z,102801.09
2023-04-18T15:40:22.096Z,102799.31
2023-04-18T15:42:49.699Z,102791.50
2023-04-18T15:45:16.186Z,102792.34
2023-04-18T15:47:42.626Z,102792.28
2023-04-18T15:50:09.589Z,102794.69
2023-04-18T15:52:36.681Z,102789.38
2023-04-18T15:55:04.930Z,102791.41
2023-04-18T15:57:31.945Z,102786.72
2023-04-18T15:59:59.422Z,102788.22
2023-04-18T16:02:26.506Z,102779.53
2023-04-18T16:04:53.081Z,102785.44
2023-04-18T16:07:19.470Z,102795.09
2023-04-18T16:09:45.900Z,102788.81
2023-04-18T16:12:12.316Z,102784.81
2023-04-18T16:14:38.758Z,102781.94
2023-04-18T16:17:05.176Z,102774.72
2023-04-18T16:19:33.308Z,102784.41
2023-04-18T16:22:00.903Z,102781.19
2023-04-18T16:24:27.461Z,102781.56
2023-04-18T16:26:55.498Z,102778.38
2023-04-18T16:29:24.113Z,102773.53
2023-04-18T16:31:51.713Z,102790.22
2023-04-18T16:34:18.382Z,102790.50
2023-04-18T16:36:44.834Z,102786.38
2023-04-18T16:39:11.446Z,102790.56
2023-04-18T16:41:37.894Z,102786.69
2023-04-18T16:44:04.634Z,102790.06
2023-04-18T16:46:32.314Z,102789.44
2023-04-18T16:48:59.253Z,102784.00
2023-04-18T16:51:26.380Z,102782.50
2023-04-18T16:53:52.810Z,102787.88
2023-04-18T16:56:19.172Z,102777.56
2023-04-18T16:58:45.917Z,102780.25
2023-04-18T17:01:12.522Z,102776.22
2023-04-18T17:03:39.092Z,102772.88
2023-04-18T17:06:05.899Z,102774.59
2023-04-18T17:08:33.600Z,102775.38
2023-04-18T17:11:01.853Z,102781.41
2023-04-18T17:13:31.322Z,102782.44
2023-04-18T17:15:58.003Z,102768.97
2023-04-18T17:18:24.554Z,102773.41
2023-04-18T17:20:50.964Z,102773.63
2023-04-18T17:23:17.326Z,102779.75
2023-04-18T17:25:43.736Z,102787.44
2023-04-18T17:28:10.223Z,102786.56
2023-04-18T17:30:41.487Z,102789.91
2023-04-18T17:33:09.312Z,102790.63
2023-04-18T17:35:36.033Z,102790.69
2023-04-18T17:38:02.382Z,102790.84
2023-04-18T17:40:28.927Z,102789.59
2023-04-18T17:42:55.296Z,102784.25
2023-04-18T17:45:21.800Z,102792.38
2023-04-18T17:47:49.898Z,102788.94
2023-04-18T17:50:16.756Z,102787.44
2023-04-18T17:52:43.914Z,102790.19
2023-04-18T17:55:10.323Z,102792.91
2023-04-18T17:57:37.270Z,102791.31
2023-04-18T18:00:09.919Z,102782.97
2023-04-18T18:02:36.695Z,102795.09
2023-04-18T18:05:03.398Z,102791.75
2023-04-18T18:07:31.139Z,102791.84
2023-04-18T18:09:58.124Z,102799.75
2023-04-18T18:12:24.472Z,102792.06
2023-04-18T18:14:50.838Z,102793.06
2023-04-18T18:17:17.311Z,102796.59
2023-04-18T18:19:43.780Z,102800.16
2023-04-18T18:22:10.382Z,102803.69
2023-04-18T18:24:36.761Z,102804.69
2023-04-18T18:27:03.148Z,102801.38
2023-04-18T18:29:29.674Z,102810.13
2023-04-18T18:31:56.124Z,102806.75
2023-04-18T18:34:22.706Z,102809.38
2023-04-18T18:36:49.106Z,102801.66
2023-04-18T18:39:16.432Z,102802.56
2023-04-18T18:41:43.256Z,102811.25
2023-04-18T18:44:09.668Z,102807.00
2023-04-18T18:46:36.577Z,102813.06
2023-04-18T18:49:03.519Z,102813.94
2023-04-18T18:51:29.964Z,102812.34
2023-04-18T18:53:57.129Z,102810.72
2023-04-18T18:56:23.802Z,102819.34
2023-04-18T18:58:50.218Z,102825.44
2023-04-18T19:01:16.827Z,102822.91
2023-04-18T19:03:43.437Z,102823.84
2023-04-18T19:06:10.065Z,102829.00
2023-04-18T19:08:36.466Z,102835.06
2023-04-18T19:11:02.872Z,102841.09
2023-04-18T19:13:29.303Z,102836.84
2023-04-18T19:15:55.710Z,102845.44
2023-04-18T19:18:22.530Z,102842.06
2023-04-18T19:20:51.747Z,102849.88
2023-04-18T19:23:19.288Z,102848.22
2023-04-18T19:25:46.570Z,102852.50
2023-04-18T19:28:14.369Z,102858.50
2023-04-18T19:30:42.011Z,102861.09
2023-04-18T19:33:08.610Z,102864.59
2023-04-18T19:35:37.676Z,102860.38
2023-04-18T19:38:04.480Z,102862.09
2023-04-18T19:40:31.074Z,102867.28
2023-04-18T19:42:57.735Z,102866.44
2023-04-18T19:45:24.464Z,102874.19
2023-04-18T19:47:51.002Z,102873.34
2023-04-18T19:50:17.560Z,102879.38
2023-04-18T19:52:44.092Z,102870.84
2023-04-18T19:55:10.474Z,102883.69
2023-04-18T19:57:41.328Z,102882.91
2023-04-18T20:00:10.087Z,102888.09
2023-04-18T20:02:36.834Z,102888.09
2023-04-18T20:05:04.845Z,102888.13
2023-04-18T20:07:31.699Z,102888.16
2023-04-18T20:09:58.141Z,102891.59
2023-04-18T20:12:24.563Z,102893.34
2023-04-18T20:14:51.337Z,102892.47
2023-04-18T20:17:17.983Z,102889.06
2023-04-18T20:19:47.111Z,102897.66
2023-04-18T20:22:14.807Z,102901.97
2023-04-18T20:24:41.290Z,102899.41
2023-04-18T20:27:07.746Z,102903.66
2023-04-18T20:29:34.154Z,102901.13
2023-04-18T20:32:00.595Z,102901.13
2023-04-18T20:34:26.999Z,102893.41
2023-04-18T20:36:53.472Z,102902.81
2023-04-18T20:39:20.130Z,102903.69
2023-04-18T20:41:50.694Z,102905.41
2023-04-18T20:44:19.036Z,102906.28
2023-04-18T20:46:45.432Z,102903.72
2023-04-18T20:49:11.916Z,102896.88
2023-04-18T20:51:38.360Z,102897.72
2023-04-18T20:54:05.343Z,102908.00
2023-04-18T20:56:32.129Z,102914.88
2023-04-18T20:58:58.487Z,102908.03
2023-04-18T21:01:24.945Z,102917.41
2023-04-18T21:03:51.459Z,102913.16
2023-04-18T21:06:19.166Z,102918.28
2023-04-18T21:08:45.796Z,102915.72
2023-04-18T21:11:12.215Z,102913.16
2023-04-18T21:13:38.717Z,102912.31
2023-04-18T21:16:07.908Z,102925.16
2023-04-18T21:18:34.471Z,102923.44
2023-04-18T21:21:00.937Z,102922.59
2023-04-18T21:23:27.412Z,102930.25
2023-04-18T21:25:53.790Z,102928.56
2023-04-18T21:28:20.372Z,102932.81
2023-04-18T21:30:46.878Z,102930.25
2023-04-18T21:33:13.494Z,102925.13
2023-04-18T21:35:39.978Z,102930.25
2023-04-18T21:38:06.402Z,102928.53
2023-04-18T21:40:33.322Z,102931.94
2023-04-18T21:42:59.782Z,102928.53
2023-04-18T21:45:26.310Z,102935.34
2023-04-18T21:47:52.849Z,102934.50
2023-04-18T21:50:19.453Z,102929.38
2023-04-18T21:52:45.869Z,102930.22
2023-04-18T21:55:12.325Z,102929.38
2023-04-18T21:57:38.753Z,102921.66
2023-04-18T22:00:08.504Z,102923.34
2023-04-18T22:02:36.603Z,102923.34
2023-04-18T22:05:03.153Z,102921.63
2023-04-18T22:07:29.586Z,102919.06
2023-04-18T22:09:58.480Z,102927.63
2023-04-18T22:12:26.359Z,102921.63
2023-04-18T22:14:52.940Z,102914.81
2023-04-18T22:17:20.911Z,102918.22
2023-04-18T22:19:49.806Z,102923.34
2023-04-18T22:22:16.531Z,102922.44
2023-04-18T22:24:43.585Z,102919.03
2023-04-18T22:27:11.308Z,102925.00
2023-04-18T22:29:37.791Z,102924.16
2023-04-18T22:32:04.395Z,102926.72
2023-04-18T22:34:30.854Z,102922.41
2023-04-18T22:36:57.226Z,102923.25
2023-04-18T22:39:24.721Z,102917.28
2023-04-18T22:41:51.092Z,102922.38
2023-04-18T22:44:17.784Z,102917.22
2023-04-18T22:46:44.647Z,102926.66
2023-04-18T22:49:11.282Z,102918.06
2023-04-18T22:51:38.157Z,102936.00
2023-04-18T22:54:05.233Z,102934.28
2023-04-18T22:56:31.619Z,102930.00
2023-04-18T22:58:57.956Z,102941.09
2023-04-18T23:01:24.395Z,102936.78
2023-04-18T23:03:51.100Z,102935.06
2023-04-18T23:06:17.615Z,102935.06
2023-04-18T23:08:44.007Z,102935.03
2023-04-18T23:11:11.152Z,102936.75
2023-04-18T23:13:37.656Z,102946.06
2023-04-18T23:16:04.376Z,102953.75
2023-04-18T23:18:30.858Z,102945.22
2023-04-18T23:20:57.320Z,102946.88
2023-04-18T23:23:23.850Z,102947.75
2023-04-18T23:25:50.236Z,102948.59
2023-04-18T23:28:17.152Z,102947.75
2023-04-18T23:30:43.955Z,102948.59
2023-04-18T23:33:10.545Z,102947.75
2023-04-18T23:35:37.502Z,102951.97
2023-04-18T23:38:03.880Z,102948.59
2023-04-18T23:40:30.440Z,102948.59
2023-04-18T23:42:57.118Z,102941.75
2023-04-18T23:45:24.364Z,102935.78
2023-04-18T23:47:51.433Z,102946.88
2023-04-18T23:50:17.938Z,102949.44
2023-04-18T23:52:44.318Z,102946.03
2023-04-18T23:55:10.838Z,102944.28
2023-04-18T23:57:37.382Z,102941.72
